createdAt,value
2023-04-25T00:02:08.194Z,15.06
2023-04-25T00:04:40.241Z,15.07
2023-04-25T00:07:11.670Z,15.06
2023-04-25T00:09:42.530Z,15.07
2023-04-25T00:12:13.282Z,15.08
2023-04-25T00:14:43.994Z,15.08
2023-04-25T00:17:14.675Z,15.08
2023-04-25T00:19:47.380Z,15.08
2023-04-25T00:22:18.540Z,15.10
2023-04-25T00:24:49.315Z,15.10
2023-04-25T00:27:20.020Z,15.11
2023-04-25T00:29:50.811Z,15.09
2023-04-25T00:32:21.520Z,15.08
2023-04-25T00:34:52.311Z,15.08
2023-04-25T00:37:23.226Z,15.09
2023-04-25T00:39:55.981Z,15.07
2023-04-25T00:42:26.986Z,15.06
2023-04-25T00:44:59.137Z,15.04
2023-04-25T00:47:30.221Z,15.03
2023-04-25T00:50:01.115Z,15.03
2023-04-25T00:52:31.929Z,15.03
2023-04-25T00:55:02.960Z,15.03
2023-04-25T00:57:34.027Z,15.03
2023-04-25T01:00:07.649Z,15.02
2023-04-25T01:02:38.781Z,15.01
2023-04-25T01:05:10.609Z,15.00
2023-04-25T01:07:41.690Z,14.97
2023-04-25T01:10:13.007Z,14.96
2023-04-25T01:12:44.222Z,14.95
2023-04-25T01:15:15.030Z,14.93
2023-04-25T01:17:46.104Z,14.92
2023-04-25T01:20:17.730Z,14.92
2023-04-25T01:22:48.593Z,14.91
2023-04-25T01:25:19.698Z,14.89
2023-04-25T01:27:50.740Z,14.89
2023-04-25T01:30:21.822Z,14.88
2023-04-25T01:32:53.136Z,14.88
2023-04-25T01:35:25.078Z,14.86
2023-04-25T01:37:58.241Z,14.84
2023-04-25T01:40:29.551Z,14.83
2023-04-25T01:43:01.808Z,14.82
2023-04-25T01:45:34.126Z,14.80
2023-04-25T01:48:05.360Z,14.79
2023-04-25T01:50:36.339Z,14.78
2023-04-25T01:53:07.485Z,14.77
2023-04-25T01:55:38.224Z,14.76
2023-04-25T01:58:14.008Z,14.75
2023-04-25T02:01:05.096Z,14.73
2023-04-25T02:03:39.840Z,14.72
2023-04-25T02:06:14.936Z,14.71
2023-04-25T02:08:48.620Z,14.71
2023-04-25T02:11:19.417Z,14.71
2023-04-25T02:13:58.598Z,14.71
2023-04-25T02:16:46.046Z,14.71
2023-04-25T02:19:16.881Z,14.68
2023-04-25T02:21:47.534Z,14.68
2023-04-25T02:24:18.289Z,14.67
2023-04-25T02:26:50.423Z,14.67
2023-04-25T02:29:21.220Z,14.64
2023-04-25T02:31:52.072Z,14.62
2023-04-25T02:34:23.373Z,14.62
2023-04-25T02:36:54.032Z,14.60
2023-04-25T02:39:26.211Z,14.60
2023-04-25T02:41:56.957Z,14.59
2023-04-25T02:44:27.818Z,14.57
2023-04-25T02:46:58.614Z,14.56
2023-04-25T02:49:29.324Z,14.56
2023-04-25T02:52:00.211Z,14.56
2023-04-25T02:54:32.023Z,14.55
2023-04-25T02:57:03.654Z,14.52
2023-04-25T02:59:38.323Z,14.50
2023-04-25T03:02:09.146Z,14.48
2023-04-25T03:04:40.046Z,14.47
2023-04-25T03:07:10.957Z,14.46
2023-04-25T03:09:41.647Z,14.46
2023-04-25T03:12:12.423Z,14.45
2023-04-25T03:14:43.079Z,14.43
2023-04-25T03:17:13.899Z,14.42
2023-04-25T03:19:44.639Z,14.40
2023-04-25T03:22:15.622Z,14.37
2023-04-25T03:24:46.465Z,14.34
2023-04-25T03:27:18.486Z,14.30
2023-04-25T03:29:49.296Z,14.26
2023-04-25T03:32:20.197Z,14.25
2023-04-25T03:34:51.135Z,14.24
2023-04-25T03:37:21.884Z,14.25
2023-04-25T03:39:53.168Z,14.23
2023-04-25T03:42:25.987Z,14.20
2023-04-25T03:44:57.084Z,14.19
2023-04-25T03:47:28.364Z,14.16
2023-04-25T03:49:59.384Z,14.15
2023-04-25T03:52:30.441Z,14.14
2023-04-25T03:55:01.214Z,14.14
2023-04-25T03:57:32.606Z,14.14
2023-04-25T04:00:05.430Z,14.12
2023-04-25T04:02:45.572Z,14.10
2023-04-25T04:05:17.307Z,14.06
2023-04-25T04:07:54.469Z,14.02
2023-04-25T04:10:27.188Z,14.01
2023-04-25T04:12:59.744Z,13.98
2023-04-25T04:15:30.506Z,13.96
2023-04-25T04:18:03.859Z,13.94
2023-04-25T04:20:35.245Z,13.92
2023-04-25T04:23:07.627Z,13.91
2023-04-25T04:25:38.452Z,13.89
2023-04-25T04:28:14.636Z,13.85
2023-04-25T04:31:05.006Z,13.79
2023-04-25T04:33:35.909Z,13.77
2023-04-25T04:36:10.952Z,13.74
2023-04-25T04:38:43.503Z,13.70
2023-04-25T04:41:22.375Z,13.67
2023-04-25T04:44:11.229Z,13.65
2023-04-25T04:47:09.328Z,13.62
2023-04-25T04:49:58.859Z,13.59
2023-04-25T04:52:45.997Z,13.59
2023-04-25T04:55:35.116Z,13.55
2023-04-25T04:58:14.164Z,13.51
2023-04-25T05:01:03.223Z,13.47
2023-04-25T05:03:42.439Z,13.43
2023-04-25T05:06:42.692Z,13.41
2023-04-25T05:09:31.739Z,13.37
2023-04-25T05:12:25.258Z,13.34
2023-04-25T05:15:03.558Z,13.32
2023-04-25T05:17:52.725Z,13.32
2023-04-25T05:20:23.542Z,13.32
2023-04-25T05:22:56.813Z,13.29
2023-04-25T05:25:56.394Z,13.26
2023-04-25T05:28:45.887Z,13.24
2023-04-25T05:31:33.772Z,13.23
2023-04-25T05:34:08.933Z,13.26
2023-04-25T05:36:49.493Z,13.26
2023-04-25T05:39:20.345Z,13.28
2023-04-25T05:42:11.556Z,13.28
2023-04-25T05:45:01.681Z,13.31
2023-04-25T05:47:52.549Z,13.33
2023-04-25T05:50:33.283Z,13.34
2023-04-25T05:53:16.488Z,13.31
2023-04-25T05:55:48.578Z,13.29
2023-04-25T05:58:26.060Z,13.29
2023-04-25T06:00:58.110Z,13.28
2023-04-25T06:03:29.111Z,13.28
2023-04-25T06:06:01.516Z,13.27
2023-04-25T06:08:32.948Z,13.25
2023-04-25T06:11:03.646Z,13.22
2023-04-25T06:13:34.512Z,13.15
2023-04-25T06:16:05.806Z,13.11
2023-04-25T06:18:36.856Z,13.05
2023-04-25T06:21:09.371Z,13.02
2023-04-25T06:23:40.139Z,12.99
2023-04-25T06:26:12.366Z,12.98
2023-04-25T06:28:44.542Z,12.98
2023-04-25T06:31:16.111Z,12.96
2023-04-25T06:33:47.683Z,12.94
2023-04-25T06:36:18.593Z,12.92
2023-04-25T06:38:51.093Z,12.92
2023-04-25T06:41:22.207Z,12.91
2023-04-25T06:43:52.896Z,12.93
2023-04-25T06:46:37.470Z,12.95
2023-04-25T06:49:08.720Z,12.95
2023-04-25T06:51:40.260Z,12.96
2023-04-25T06:54:11.060Z,12.97
2023-04-25T06:56:47.225Z,12.98
2023-04-25T06:59:19.366Z,13.00
2023-04-25T07:01:50.587Z,13.00
2023-04-25T07:04:29.071Z,12.98
2023-04-25T07:07:02.130Z,12.95
2023-04-25T07:09:38.356Z,12.91
2023-04-25T07:12:09.502Z,12.86
2023-04-25T07:14:40.378Z,12.85
2023-04-25T07:17:11.388Z,12.83
2023-04-25T07:19:42.138Z,12.80
2023-04-25T07:22:13.094Z,12.76
2023-04-25T07:24:48.433Z,12.77
2023-04-25T07:27:19.945Z,12.79
2023-04-25T07:30:00.664Z,12.81
2023-04-25T07:32:31.449Z,12.85
2023-04-25T07:35:02.879Z,12.89
2023-04-25T07:37:34.050Z,12.93
2023-04-25T07:40:10.633Z,12.97
2023-04-25T07:42:44.561Z,13.01
2023-04-25T07:45:16.538Z,13.03
2023-04-25T07:47:47.950Z,13.07
2023-04-25T07:50:19.053Z,13.11
2023-04-25T07:52:51.320Z,13.15
2023-04-25T07:55:33.118Z,13.18
2023-04-25T07:58:08.199Z,13.21
2023-04-25T08:00:41.082Z,13.21
2023-04-25T08:03:47.343Z,13.26
2023-04-25T08:06:24.413Z,13.29
2023-04-25T08:09:10.179Z,13.34
2023-04-25T08:11:43.948Z,13.37
2023-04-25T08:14:16.324Z,13.39
2023-04-25T08:16:48.625Z,13.43
2023-04-25T08:19:20.076Z,13.48
2023-04-25T08:21:52.956Z,13.51
2023-04-25T08:24:26.963Z,13.54
2023-04-25T08:27:00.087Z,13.57
2023-04-25T08:29:31.905Z,13.58
2023-04-25T08:32:03.092Z,13.57
2023-04-25T08:34:34.141Z,13.56
2023-04-25T08:37:07.963Z,13.57
2023-04-25T08:39:44.453Z,13.58
2023-04-25T08:42:43.205Z,13.55
2023-04-25T08:45:14.328Z,13.53
2023-04-25T08:47:47.701Z,13.52
2023-04-25T08:50:20.369Z,13.51
2023-04-25T08:52:53.605Z,13.50
2023-04-25T08:55:25.896Z,13.52
2023-04-25T08:57:59.946Z,13.54
2023-04-25T09:00:31.345Z,13.56
2023-04-25T09:03:02.415Z,13.54
2023-04-25T09:05:36.573Z,13.54
2023-04-25T09:08:07.506Z,13.54
2023-04-25T09:10:38.542Z,13.54
2023-04-25T09:13:11.614Z,13.51
2023-04-25T09:16:04.550Z,13.49
2023-04-25T09:18:48.346Z,13.52
2023-04-25T09:21:19.746Z,13.56
2023-04-25T09:23:52.863Z,13.63
2023-04-25T09:26:24.487Z,13.68
2023-04-25T09:29:06.953Z,13.75
2023-04-25T09:31:38.413Z,13.84
2023-04-25T09:34:13.076Z,13.93
2023-04-25T09:36:47.741Z,14.00
2023-04-25T09:39:57.359Z,14.07
2023-04-25T09:42:30.119Z,14.19
2023-04-25T09:45:02.944Z,14.31
2023-04-25T09:47:39.932Z,14.36
2023-04-25T09:50:17.515Z,14.36
2023-04-25T09:53:04.409Z,14.35
2023-04-25T09:55:42.177Z,14.31
2023-04-25T09:58:13.792Z,14.28
2023-04-25T10:00:44.990Z,14.28
2023-04-25T10:03:26.660Z,14.25
2023-04-25T10:06:19.940Z,14.20
2023-04-25T10:08:53.315Z,14.18
2023-04-25T10:11:25.259Z,14.22
2023-04-25T10:13:56.158Z,14.31
2023-04-25T10:16:27.057Z,14.43
2023-04-25T10:18:57.885Z,14.49
2023-04-25T10:21:31.631Z,14.50
2023-04-25T10:24:02.831Z,14.51
2023-04-25T10:26:34.198Z,14.49
2023-04-25T10:29:05.717Z,14.49
2023-04-25T10:31:46.477Z,14.49
2023-04-25T10:34:17.695Z,14.49
2023-04-25T10:36:53.620Z,14.49
2023-04-25T10:39:29.058Z,14.50
2023-04-25T10:42:00.265Z,14.51
2023-04-25T10:44:31.511Z,14.53
2023-04-25T10:47:04.295Z,14.54
2023-04-25T10:49:36.216Z,14.55
2023-04-25T10:52:27.663Z,14.58
2023-04-25T10:54:59.461Z,14.60
2023-04-25T10:57:34.587Z,14.64
2023-04-25T11:00:10.739Z,14.67
2023-04-25T11:02:44.071Z,14.69
2023-04-25T11:05:21.312Z,14.77
2023-04-25T11:08:03.921Z,14.96
2023-04-25T11:10:38.217Z,15.10
2023-04-25T11:13:08.873Z,15.14
2023-04-25T11:15:39.606Z,15.13
2023-04-25T11:18:10.452Z,15.11
2023-04-25T11:20:41.352Z,15.11
2023-04-25T11:23:12.268Z,15.12
2023-04-25T11:25:43.025Z,15.12
2023-04-25T11:28:13.849Z,15.13
2023-04-25T11:30:50.139Z,15.17
2023-04-25T11:33:25.298Z,15.26
2023-04-25T11:35:57.734Z,15.32
2023-04-25T11:38:29.540Z,15.38
2023-04-25T11:41:01.113Z,15.45
2023-04-25T11:43:33.290Z,15.50
2023-04-25T11:46:08.641Z,15.55
2023-04-25T11:48:43.171Z,15.59
2023-04-25T11:51:14.476Z,15.57
2023-04-25T11:53:46.712Z,15.58
2023-04-25T11:56:17.458Z,15.65
2023-04-25T11:58:57.758Z,15.69
2023-04-25T12:01:31.483Z,15.67
2023-04-25T12:04:14.010Z,15.63
2023-04-25T12:06:47.779Z,15.58
2023-04-25T12:09:20.267Z,15.53
2023-04-25T12:11:55.073Z,15.47
2023-04-25T12:14:28.069Z,15.38
2023-04-25T12:16:59.622Z,15.31
2023-04-25T12:19:34.265Z,15.25
2023-04-25T12:22:05.475Z,15.18
2023-04-25T12:24:38.989Z,15.10
2023-04-25T12:27:10.203Z,15.03
2023-04-25T12:29:49.725Z,14.96
2023-04-25T12:32:20.876Z,14.91
2023-04-25T12:34:51.500Z,14.89
2023-04-25T12:37:22.462Z,14.86
2023-04-25T12:39:53.176Z,14.82
2023-04-25T12:42:23.930Z,14.79
2023-04-25T12:44:54.670Z,14.78
2023-04-25T12:47:25.585Z,14.76
2023-04-25T12:49:56.283Z,14.75
2023-04-25T12:52:27.162Z,14.72
2023-04-25T12:54:57.908Z,14.70
2023-04-25T12:57:28.699Z,14.68
2023-04-25T12:59:59.394Z,14.67
2023-04-25T13:02:30.239Z,14.67
2023-04-25T13:05:01.261Z,14.66
2023-04-25T13:07:33.452Z,14.64
2023-04-25T13:10:04.885Z,14.63
2023-04-25T13:12:35.648Z,14.63
2023-04-25T13:15:08.053Z,14.64
2023-04-25T13:17:38.819Z,14.64
2023-04-25T13:20:10.878Z,14.62
2023-04-25T13:22:41.728Z,14.62
2023-04-25T13:25:12.449Z,14.62
2023-04-25T13:27:45.326Z,14.62
2023-04-25T13:30:16.162Z,14.60
2023-04-25T13:32:47.005Z,14.59
2023-04-25T13:35:18.841Z,14.56
2023-04-25T13:37:49.578Z,14.52
2023-04-25T13:40:20.325Z,14.54
2023-04-25T13:42:52.177Z,14.57
2023-04-25T13:45:23.333Z,14.58
2023-04-25T13:47:54.138Z,14.57
2023-04-25T13:50:24.941Z,14.55
2023-04-25T13:52:55.761Z,14.56
2023-04-25T13:55:26.564Z,14.57
2023-04-25T13:57:57.361Z,14.52
2023-04-25T14:00:28.137Z,14.53
2023-04-25T14:02:58.990Z,14.53
2023-04-25T14:05:29.813Z,14.53
2023-04-25T14:08:02.258Z,14.55
2023-04-25T14:10:33.301Z,14.55
2023-04-25T14:13:04.933Z,14.54
2023-04-25T14:15:36.110Z,14.54
2023-04-25T14:18:07.140Z,14.52
2023-04-25T14:20:38.013Z,14.51
2023-04-25T14:23:08.816Z,14.50
2023-04-25T14:25:39.552Z,14.49
2023-04-25T14:28:10.497Z,14.49
2023-04-25T14:30:41.168Z,14.48
2023-04-25T14:33:12.303Z,14.47
2023-04-25T14:35:43.033Z,14.45
2023-04-25T14:38:14.087Z,14.45
2023-04-25T14:40:45.173Z,14.45
2023-04-25T14:43:15.914Z,14.44
2023-04-25T14:45:46.928Z,14.43
2023-04-25T14:48:19.217Z,14.43
2023-04-25T14:50:50.094Z,14.43
2023-04-25T14:53:20.938Z,14.42
2023-04-25T14:55:51.647Z,14.41
2023-04-25T14:58:22.516Z,14.39
2023-04-25T15:00:53.417Z,14.39
2023-04-25T15:03:24.366Z,14.40
2023-04-25T15:05:57.165Z,14.40
2023-04-25T15:08:28.111Z,14.38
2023-04-25T15:10:59.024Z,14.36
2023-04-25T15:13:30.027Z,14.34
2023-04-25T15:16:00.835Z,14.34
2023-04-25T15:18:31.677Z,14.33
2023-04-25T15:21:02.403Z,14.32
2023-04-25T15:23:33.181Z,14.33
2023-04-25T15:26:03.957Z,14.33
2023-04-25T15:28:35.232Z,14.33
2023-04-25T15:31:06.046Z,14.33
2023-04-25T15:33:36.870Z,14.30
2023-04-25T15:36:08.159Z,14.29
2023-04-25T15:38:39.272Z,14.27
2023-04-25T15:41:10.148Z,14.25
2023-04-25T15:43:40.953Z,14.20
2023-04-25T15:46:11.736Z,14.16
2023-04-25T15:48:42.640Z,14.14
2023-04-25T15:51:13.319Z,14.12
2023-04-25T15:53:44.031Z,14.11
2023-04-25T15:56:14.711Z,14.09
2023-04-25T15:58:45.474Z,14.06
2023-04-25T16:01:16.645Z,14.04
2023-04-25T16:03:47.539Z,14.02
2023-04-25T16:06:18.492Z,14.00
2023-04-25T16:08:49.304Z,14.01
2023-04-25T16:11:20.029Z,14.01
2023-04-25T16:13:51.044Z,13.99
2023-04-25T16:16:21.974Z,13.99
2023-04-25T16:18:52.632Z,13.99
2023-04-25T16:21:23.338Z,13.96
2023-04-25T16:23:54.080Z,13.95
2023-04-25T16:26:24.777Z,13.95
2023-04-25T16:28:55.489Z,13.96
2023-04-25T16:31:26.583Z,13.95
2023-04-25T16:33:57.490Z,13.94
2023-04-25T16:36:28.242Z,13.92
2023-04-25T16:38:58.988Z,13.92
2023-04-25T16:41:30.115Z,13.93
2023-04-25T16:44:00.902Z,13.93
2023-04-25T16:46:32.094Z,13.93
2023-04-25T16:49:03.281Z,13.93
2023-04-25T16:51:34.049Z,13.93
2023-04-25T16:54:05.034Z,13.91
2023-04-25T16:56:35.750Z,13.90
2023-04-25T16:59:06.553Z,13.86
2023-04-25T17:01:37.468Z,13.86
2023-04-25T17:04:08.448Z,13.88
2023-04-25T17:06:39.555Z,13.89
2023-04-25T17:09:10.623Z,13.88
2023-04-25T17:11:41.327Z,13.87
2023-04-25T17:14:12.081Z,13.85
2023-04-25T17:16:42.885Z,13.84
2023-04-25T17:19:13.628Z,13.85
2023-04-25T17:21:45.130Z,13.84
2023-04-25T17:24:16.081Z,13.84
2023-04-25T17:26:48.740Z,13.83
2023-04-25T17:29:21.774Z,13.81
2023-04-25T17:31:53.657Z,13.81
2023-04-25T17:34:24.425Z,13.80
2023-04-25T17:36:55.159Z,13.78
2023-04-25T17:39:27.603Z,13.76
2023-04-25T17:42:00.867Z,13.73
2023-04-25T17:44:32.135Z,13.69
2023-04-25T17:47:03.804Z,13.61
2023-04-25T17:49:34.689Z,13.51
2023-04-25T17:52:06.510Z,13.41
2023-04-25T17:54:37.292Z,13.32
2023-04-25T17:57:08.185Z,13.26
2023-04-25T17:59:39.003Z,13.21
2023-04-25T18:02:10.945Z,13.18
2023-04-25T18:04:41.753Z,13.13
2023-04-25T18:07:12.467Z,13.07
2023-04-25T18:09:43.259Z,13.04
2023-04-25T18:12:15.362Z,13.01
2023-04-25T18:14:46.306Z,12.99
2023-04-25T18:17:17.308Z,12.96
2023-04-25T18:19:48.971Z,12.95
2023-04-25T18:22:19.741Z,12.94
2023-04-25T18:24:51.441Z,12.92
2023-04-25T18:27:22.166Z,12.86
2023-04-25T18:29:53.615Z,12.81
2023-04-25T18:32:24.373Z,12.81
2023-04-25T18:34:55.127Z,12.80
2023-04-25T18:37:25.846Z,12.80
2023-04-25T18:39:56.575Z,12.79
2023-04-25T18:42:27.450Z,12.78
2023-04-25T18:44:58.181Z,12.79
2023-04-25T18:47:29.122Z,12.80
2023-04-25T18:49:59.824Z,12.78
2023-04-25T18:52:30.600Z,12.76
2023-04-25T18:55:01.392Z,12.73
2023-04-25T18:57:32.101Z,12.71
2023-04-25T19:00:05.597Z,12.69
2023-04-25T19:02:38.131Z,12.68
2023-04-25T19:05:10.291Z,12.62
2023-04-25T19:07:41.587Z,12.58
2023-04-25T19:10:13.165Z,12.56
2023-04-25T19:12:43.863Z,12.56
2023-04-25T19:15:14.822Z,12.56
2023-04-25T19:17:45.636Z,12.53
2023-04-25T19:20:16.850Z,12.52
2023-04-25T19:22:48.383Z,12.49
2023-04-25T19:25:19.117Z,12.48
2023-04-25T19:27:49.839Z,12.47
2023-04-25T19:30:20.836Z,12.48
2023-04-25T19:32:52.186Z,12.49
2023-04-25T19:35:23.508Z,12.49
2023-04-25T19:37:54.281Z,12.48
2023-04-25T19:40:25.064Z,12.47
2023-04-25T19:42:55.685Z,12.47
2023-04-25T19:45:26.576Z,12.48
2023-04-25T19:47:57.260Z,12.50
2023-04-25T19:50:28.399Z,12.49
2023-04-25T19:52:59.370Z,12.46
2023-04-25T19:55:30.188Z,12.44
2023-04-25T19:58:01.913Z,12.41
2023-04-25T20:00:32.762Z,12.40
2023-04-25T20:03:04.622Z,12.40
2023-04-25T20:05:36.042Z,12.40
2023-04-25T20:08:06.998Z,12.38
2023-04-25T20:10:37.802Z,12.37
2023-04-25T20:13:08.730Z,12.35
2023-04-25T20:15:39.573Z,12.32
2023-04-25T20:18:10.371Z,12.28
2023-04-25T20:20:41.245Z,12.25
2023-04-25T20:23:12.227Z,12.24
2023-04-25T20:25:43.616Z,12.20
2023-04-25T20:28:14.260Z,12.16
2023-04-25T20:30:45.111Z,12.15
2023-04-25T20:33:16.006Z,12.14
2023-04-25T20:35:48.503Z,12.10
2023-04-25T20:38:19.197Z,12.08
2023-04-25T20:40:51.021Z,12.05
2023-04-25T20:43:22.355Z,12.04
2023-04-25T20:45:53.487Z,12.02
2023-04-25T20:48:24.385Z,12.01
2023-04-25T20:50:55.204Z,11.99
2023-04-25T20:53:26.239Z,12.00
2023-04-25T20:55:57.591Z,12.01
2023-04-25T20:58:28.826Z,12.01
2023-04-25T21:00:59.960Z,12.01
2023-04-25T21:03:31.188Z,12.02
2023-04-25T21:06:02.247Z,12.00
2023-04-25T21:08:32.992Z,12.01
2023-04-25T21:11:03.980Z,12.01
2023-04-25T21:13:34.834Z,12.00
2023-04-25T21:16:06.779Z,11.97
2023-04-25T21:18:37.419Z,11.95
2023-04-25T21:21:08.524Z,11.96
2023-04-25T21:23:39.229Z,11.94
2023-04-25T21:26:10.028Z,11.93
2023-04-25T21:28:40.705Z,11.92
2023-04-25T21:31:11.528Z,11.91
2023-04-25T21:33:42.490Z,11.91
2023-04-25T21:36:13.179Z,11.91
2023-04-25T21:38:43.858Z,11.93
2023-04-25T21:41:14.705Z,11.94
2023-04-25T21:43:45.512Z,11.93
2023-04-25T21:46:23.410Z,11.93
2023-04-25T21:48:55.108Z,11.93
2023-04-25T21:51:26.109Z,11.92
2023-04-25T21:53:56.909Z,11.93
2023-04-25T21:56:27.694Z,11.93
2023-04-25T21:59:06.602Z,11.94
2023-04-25T22:01:38.841Z,11.91
2023-04-25T22:04:10.021Z,11.90
2023-04-25T22:06:40.917Z,11.91
2023-04-25T22:09:11.732Z,11.91
2023-04-25T22:11:43.178Z,11.89
2023-04-25T22:14:13.861Z,11.87
2023-04-25T22:16:44.716Z,11.85
2023-04-25T22:19:15.391Z,11.85
2023-04-25T22:21:46.110Z,11.85
2023-04-25T22:24:17.145Z,11.85
2023-04-25T22:26:48.167Z,11.86
2023-04-25T22:29:18.962Z,11.86
2023-04-25T22:31:49.796Z,11.84
2023-04-25T22:34:20.722Z,11.82
2023-04-25T22:36:51.460Z,11.79
2023-04-25T22:39:23.322Z,11.78
2023-04-25T22:41:54.533Z,11.76
2023-04-25T22:44:25.184Z,11.74
2023-04-25T22:46:56.018Z,11.74
2023-04-25T22:49:26.666Z,11.73
2023-04-25T22:51:57.764Z,11.72
2023-04-25T22:54:28.713Z,11.71
2023-04-25T22:56:59.929Z,11.71
2023-04-25T22:59:31.103Z,11.69
2023-04-25T23:02:02.019Z,11.68
2023-04-25T23:04:32.859Z,11.68
2023-04-25T23:07:03.707Z,11.67
2023-04-25T23:09:34.414Z,11.65
2023-04-25T23:12:05.336Z,11.64
2023-04-25T23:14:36.129Z,11.65
2023-04-25T23:17:07.037Z,11.64
2023-04-25T23:19:37.846Z,11.61
2023-04-25T23:22:08.695Z,11.58
2023-04-25T23:24:40.534Z,11.55
2023-04-25T23:27:11.320Z,11.54
2023-04-25T23:29:42.110Z,11.53
2023-04-25T23:32:13.722Z,11.51
2023-04-25T23:34:44.471Z,11.49
2023-04-25T23:37:15.189Z,11.45
2023-04-25T23:39:50.669Z,11.39
2023-04-25T23:42:21.589Z,11.35
2023-04-25T23:44:52.262Z,11.33
2023-04-25T23:47:23.074Z,11.26
2023-04-25T23:49:54.012Z,11.19
2023-04-25T23:52:24.762Z,11.14
2023-04-25T23:54:55.611Z,11.07
2023-04-25T23:57:26.556Z,11.03
2023-04-25T23:59:57.721Z,11.00
